COLLISO weather

Collisons Field
Bald Knob, Arkansas, United States

Public forecast

Using degrees Fahrenheit for public forecast. Weather courtesy of forecast.io.

METAR (pilot weather report)

Closest report is Searcy Municipal Airport, 12.9 nm (23.8 km) WSW. Retrieved 2019/09/21 17:56 UTC (18 minutes ago):

KSRC 211756Z AUTO 20009G16KT 180V240 10SM FEW033 BKN050 30/20 A3016 RMK AO2 SLP215 T03000200 10300 20217 58013

TAF (pilot weather forecast)

Closest forecast is Little Rock Air Force Base, 39.6 nm (73.3 km) SW. Retrieved 2019/09/21 15:00 UTC (3 hours ago):

TAF TAF KLRF 211500Z 2115/2221 16010G15KT 9999 SCT040 BKN100 BKN200 QNH3008INS BECMG 2121/2122 17008KT 9999 BKN040 OVC080 QNH3007INS BECMG 2214/2215 20012G18KT 9000 -SHRA BKN035 OVC080 QNH2999INS TX30/2120Z TN21/2209Z